Latest Weather Observations for Dennes Point

IDT60901

Issued at 3:41 pm EDT Saturday 3 December 2016 (issued every 10 minutes, with the page automatically refreshed every 10 minutes)

About weather observations | Map of Hobart area stations | Latest observations for Hobart area | Other Formats
Station Details ID: 094255 Name: DENNES POINT Lat: -43.06 Lon: 147.36 Height: 5.67 m
Data from the previous 72 hours. | See also: Recent months at Dennes Point
Date/Time
EDT
Temp
°C
App
Temp
°C
Dew
Point
°C
Rel
Hum
%
Delta-T
°C
Wind Press
QNH
hPa
Press
MSL
hPa
Rain since
9am
mm
Dir  Spd
km/h
Gust
km/h
Spd
kts
Gust
kts
03/03:30pm 15.3 12.2 9.0 66 3.2 SE 15 22 8 12 1013.5 1013.4 0.0
03/03:00pm 16.7 14.3 7.1 53 4.8 ESE 9 13 5 7 1013.4 1013.3 0.0
03/02:30pm 18.0 15.0 7.7 51 5.2 E 13 15 7 8 1013.4 1013.3 0.0
03/02:00pm 18.5 15.5 9.3 55 4.8 ENE 15 17 8 9 1013.5 1013.4 0.0
03/01:30pm 16.8 14.4 5.4 47 5.5 NE 7 9 4 5 1013.6 1013.6 0.0
03/01:00pm 16.6 12.8 5.9 49 5.2 NE 15 19 8 10 1013.5 1013.4 0.0
03/12:30pm 16.4 12.8 6.8 53 4.7 NE 15 26 8 14 1013.5 1013.4 0.0
03/12:00pm 18.9 14.6 5.4 41 6.6 WSW 17 26 9 14 1013.3 1013.2 0.0
03/11:30am 18.0 13.8 5.6 44 6.0 W 17 28 9 15 1013.7 1013.7 0.0
03/11:00am 16.7 12.7 4.7 45 5.7 W 15 19 8 10 1013.7 1013.7 0.0
03/10:30am 16.2 11.9 5.2 48 5.2 W 17 24 9 13 1013.5 1013.4 0.0
03/10:00am 15.3 11.4 5.2 51 4.8 W 15 22 8 12 1013.5 1013.4 0.0
03/09:30am 14.3 11.9 5.4 55 4.2 WSW 7 11 4 6 1013.6 1013.6 0.0
03/09:00am 14.3 11.9 5.4 55 4.2 WSW 7 11 4 6 1013.5 1013.4 0.2
03/08:30am 13.9 11.8 5.8 58 3.8 W 6 7 3 4 1013.5 1013.4 0.2
03/08:00am 12.5 10.3 6.1 65 3.0 W 7 9 4 5 1013.2 1013.1 0.2
03/07:30am 12.5 10.4 6.8 68 2.7 WSW 7 11 4 6 1013.0 1012.9 0.2
03/07:00am 11.6 9.2 6.9 73 2.2 W 9 11 5 6 1012.9 1012.8 0.2
03/06:30am 10.7 8.9 5.5 70 2.4 W 4 7 2 4 1012.6 1012.5 0.2
03/06:00am 10.7 8.4 5.9 72 2.2 NW 7 9 4 5 1012.2 1012.1 0.2
03/05:30am 11.0 8.7 5.5 69 2.5 WNW 7 13 4 7 1012.2 1012.1 0.2
03/05:00am 11.3 7.7 5.0 65 2.9 WNW 13 17 7 9 1011.9 1011.8 0.2
03/04:30am 11.4 8.5 4.4 62 3.2 WNW 9 13 5 7 1011.4 1011.3 0.2
03/04:00am 11.2 9.7 4.9 65 2.9 N 2 9 1 5 1011.1 1011.0 0.2
03/03:30am 11.0 8.1 4.7 65 2.8 WNW 9 13 5 7 1010.9 1010.8 0.2
03/03:00am 11.6 7.7 5.3 65 2.9 WNW 15 20 8 11 1011.1 1011.0 0.2
03/02:30am 11.6 8.4 5.0 64 3.0 NW 11 17 6 9 1011.1 1011.0 0.2
03/02:00am 12.1 8.4 4.3 59 3.5 WNW 13 17 7 9 1011.1 1011.0 0.2
03/01:30am 12.3 8.4 3.3 54 4.0 WNW 13 20 7 11 1010.9 1010.8 0.2
03/01:00am 12.6 7.9 3.3 53 4.1 NW 17 24 9 13 1010.8 1010.7 0.2
03/12:30am 12.7 8.4 3.4 53 4.1 NW 15 24 8 13 1010.9 1010.8 0.2
03/12:00am 12.5 7.8 2.9 52 4.2 WNW 17 26 9 14 1011.1 1011.0 0.2
 
Date/Time
EDT
Temp
°C
App
Temp
°C
Dew
Point
°C
Rel
Hum
%
Delta-T
°C
Wind Press
QNH
hPa
Press
MSL
hPa
Rain since
9am
mm
Dir  Spd
km/h
Gust
km/h
Spd
kts
Gust
kts
02/11:30pm 12.9 8.1 2.7 50 4.5 NW 17 22 9 12 1010.9 1010.8 0.2
02/11:00pm 12.7 8.3 2.6 50 4.4 NW 15 22 8 12 1010.8 1010.7 0.2
02/10:30pm 12.9 8.3 3.6 53 4.2 NW 17 22 9 12 1010.8 1010.7 0.2
02/10:00pm 12.7 9.2 3.6 54 4.1 NW 11 17 6 9 1010.8 1010.7 0.2
02/09:30pm 12.9 7.8 3.0 51 4.4 WNW 19 28 10 15 1010.4 1010.3 0.2
02/09:00pm 13.4 8.2 3.5 51 4.5 NW 20 26 11 14 1009.9 1009.8 0.2
02/08:30pm 13.3 7.5 4.5 55 4.0 NW 24 32 13 17 1009.3 1009.2 0.2
02/08:00pm 14.1 8.2 3.8 50 4.7 WNW 24 33 13 18 1009.3 1009.2 0.2
02/07:38pm 14.5 9.5 4.8 52 4.5 W 20 43 11 23 1008.9 1008.8 0.2
02/07:30pm 14.7 10.8 5.5 54 4.4 W 15 19 8 10 1008.6 1008.5 0.2
02/07:05pm 15.4 8.8 6.2 54 4.4 WNW 30 48 16 26 1008.3 1008.2 0.2
02/07:00pm 15.3 7.8 6.1 54 4.4 W 35 48 19 26 1008.3 1008.2 0.2
02/06:56pm 14.9 6.7 4.9 51 4.7 W 37 48 20 26 1008.0 1007.9 0.2
02/06:30pm 16.9 11.5 4.3 43 5.9 W 22 30 12 16 1007.3 1007.2 0.2
02/06:00pm 17.4 12.3 3.3 39 6.5 W 19 30 10 16 1006.7 1006.6 0.2
02/05:30pm 18.4 12.0 3.1 36 7.1 W 26 37 14 20 1006.4 1006.3 0.2
02/05:00pm 17.6 11.7 1.6 34 7.2 W 22 32 12 17 1006.2 1006.1 0.2
02/04:30pm 19.0 12.5 2.4 33 7.6 W 26 39 14 21 1006.2 1006.1 0.2
02/04:00pm 19.9 13.5 3.2 33 7.9 WSW 26 37 14 20 1005.9 1005.8 0.2
02/03:30pm 20.1 13.3 2.9 32 8.1 WSW 28 39 15 21 1005.8 1005.7 0.2
02/03:00pm 20.2 13.8 3.0 32 8.1 W 26 35 14 19 1005.7 1005.6 0.2
02/02:30pm 19.6 12.5 3.3 34 7.7 W 30 41 16 22 1005.6 1005.5 0.2
02/02:00pm 18.8 11.7 3.4 36 7.2 W 30 43 16 23 1005.4 1005.3 0.2
02/01:30pm 17.9 12.6 1.8 34 7.2 WSW 19 28 10 15 1005.1 1005.0 0.2
02/01:00pm 18.7 11.2 3.7 37 7.1 W 32 43 17 23 1005.0 1004.9 0.2
02/12:45pm 18.6 12.0 4.0 38 6.9 W 28 44 15 24 1005.0 1004.9 0.2
02/12:30pm 17.7 11.1 5.9 46 5.8 WSW 30 39 16 21 1005.1 1005.0 0.2
02/12:00pm 17.8 14.1 8.1 53 5.0 SW 17 26 9 14 1005.0 1004.9 0.2
02/11:30am 17.2 12.7 6.1 48 5.4 W 19 35 10 19 1004.6 1004.5 0.2
02/11:00am 16.3 14.4 7.5 56 4.4 WNW 7 19 4 10 1004.7 1004.6 0.2
02/10:30am 14.7 9.6 7.7 63 3.5 W 24 41 13 22 1004.6 1004.5 0.2
02/10:24am 14.7 10.5 7.5 62 3.6 W 19 41 10 22 1004.5 1004.4 0.2
02/10:00am 14.5 12.7 7.1 61 3.6 W 6 13 3 7 1004.3 1004.2 0.0
02/09:30am 13.2 9.0 8.3 72 2.4 WSW 20 32 11 17 1004.2 1004.1 0.0
02/09:00am 13.5 7.6 9.0 74 2.3 WSW 30 41 16 22 1003.7 1003.6 2.8
02/08:49am 14.1 9.5 9.5 74 2.4 WSW 24 39 13 21 1003.4 1003.3 2.8
02/08:30am 15.6 13.6 8.6 63 3.6 NW 9 15 5 8 1002.7 1002.6 2.8
02/08:00am 15.8 14.1 9.9 68 3.1 NNE 9 13 5 7 1002.2 1002.1 2.8
02/07:30am 15.0 13.3 8.5 65 3.3 NNW 7 11 4 6 1001.9 1001.9 2.8
02/07:00am 14.7 12.5 7.7 63 3.5 NW 9 15 5 8 1001.7 1001.7 2.8
02/06:30am 14.1 12.4 7.4 64 3.3 NW 6 9 3 5 1001.6 1001.6 2.8
02/06:00am 12.5 10.3 8.0 74 2.2 W 9 13 5 7 1001.5 1001.5 2.8
02/05:30am 13.6 10.7 8.2 70 2.7 WNW 13 24 7 13 1001.6 1001.6 2.8
02/05:00am 12.1 11.6 10.7 91 0.7 WSW 4 7 2 4 1001.4 1001.4 2.8
02/04:30am 12.7 12.4 11.6 93 0.6 WSW 4 6 2 3 1001.2 1001.2 2.8
02/04:00am 13.8 13.7 12.0 89 1.0 NE 4 6 2 3 1001.2 1001.2 2.8
02/03:30am 13.9 13.5 12.5 91 0.8 ESE 6 7 3 4 1001.4 1001.4 2.8
02/03:00am 14.2 13.5 13.1 93 0.6 ESE 9 11 5 6 1001.4 1001.4 2.8
02/02:30am 14.4 14.3 13.3 93 0.6 ESE 6 9 3 5 1001.6 1001.6 2.8
02/02:00am 14.1 15.0 12.8 92 0.7 CALM 0 2 0 1 1001.7 1001.7 2.8
02/01:30am 14.3 14.0 13.2 93 0.6 ESE 7 9 4 5 1001.9 1001.9 2.8
02/01:00am 14.6 14.3 13.3 92 0.7 N 7 9 4 5 1002.3 1002.2 2.8
02/12:30am 14.2 13.8 13.1 93 0.6 SSE 7 11 4 6 1002.3 1002.2 2.8
02/12:00am 14.0 13.6 12.9 93 0.6 SSW 7 11 4 6 1002.6 1002.5 2.8
 
Date/Time
EDT
Temp
°C
App
Temp
°C
Dew
Point
°C
Rel
Hum
%
Delta-T
°C
Wind Press
QNH
hPa
Press
MSL
hPa
Rain since
9am
mm
Dir  Spd
km/h
Gust
km/h
Spd
kts
Gust
kts
01/11:30pm 14.4 12.9 13.1 92 0.7 SW 13 17 7 9 1002.7 1002.6 2.8
01/11:00pm 16.2 17.5 15.2 94 0.6 ENE 2 6 1 3 1002.6 1002.5 2.8
01/10:30pm 16.3 16.9 15.3 94 0.6 ENE 6 9 3 5 1002.8 1002.7 2.6
01/10:00pm 16.1 15.7 15.1 94 0.6 E 11 13 6 7 1002.7 1002.6 2.6
01/09:30pm 16.2 16.5 15.1 93 0.6 E 7 11 4 6 1003.1 1003.0 1.8
01/09:00pm 16.5 15.7 15.0 91 0.9 E 13 15 7 8 1002.9 1002.8 0.6
01/08:30pm 17.1 16.1 14.6 85 1.4 ENE 13 17 7 9 1002.7 1002.6 0.0
01/08:00pm 17.1 15.3 14.4 84 1.6 ENE 17 22 9 12 1002.3 1002.2 0.0
01/07:30pm 17.2 15.0 14.3 83 1.7 NE 19 24 10 13 1002.6 1002.5 0.0
01/07:00pm 17.5 14.0 14.6 83 1.7 NE 26 32 14 17 1002.3 1002.2 0.0
01/06:30pm 17.7 14.5 14.2 80 2.0 NE 24 28 13 15 1002.8 1002.7 0.0
01/06:00pm 18.2 15.0 14.3 78 2.3 NE 24 32 13 17 1003.1 1003.0 0.0
01/05:30pm 18.4 14.8 14.3 77 2.4 NE 26 32 14 17 1003.2 1003.1 0.0
01/05:00pm 18.7 14.7 14.0 74 2.7 NE 28 33 15 18 1003.6 1003.5 0.0
01/04:30pm 18.3 14.5 14.6 79 2.1 ENE 28 32 15 17 1003.8 1003.7 0.0
01/04:00pm 18.1 13.9 14.6 80 2.0 ENE 30 39 16 21 1004.0 1003.9 0.0
01/03:30pm 18.8 14.8 15.1 79 2.2 ENE 30 33 16 18 1004.2 1004.1 0.0
01/03:00pm 18.7 14.6 14.8 78 2.3 ENE 30 35 16 19 1004.5 1004.4 0.0
01/02:30pm 18.7 14.1 14.6 77 2.4 E 32 35 17 19 1005.0 1004.9 0.0
01/02:00pm 19.4 16.4 14.9 75 2.6 E 24 28 13 15 1005.4 1005.3 0.0
01/01:30pm 19.8 16.9 15.2 75 2.7 ENE 24 28 13 15 1005.9 1005.8 0.0
01/01:00pm 19.0 16.8 14.5 75 2.6 E 19 24 10 13 1006.6 1006.5 0.0
01/12:30pm 19.4 18.9 14.9 75 2.6 E 11 17 6 9 1006.9 1006.8 0.0
01/12:00pm 18.8 17.8 14.5 76 2.5 E 13 17 7 9 1007.3 1007.2 0.0
01/11:30am 17.9 16.6 13.6 76 2.4 ESE 13 15 7 8 1007.6 1007.5 0.0
01/11:00am 17.5 17.2 13.2 76 2.4 E 7 9 4 5 1008.0 1007.9 0.0
01/10:30am 17.9 18.1 14.2 79 2.1 NE 6 7 3 4 1008.4 1008.3 0.0
01/10:00am 16.4 16.2 12.9 80 1.9 ENE 6 7 3 4 1008.5 1008.4 0.0
01/09:30am 15.6 15.8 13.1 85 1.4 E 4 6 2 3 1008.8 1008.8 0.0
01/09:00am 14.9 15.4 12.9 88 1.1 N 2 4 1 2 1009.1 1009.1 1.8
01/08:30am 14.4 15.2 12.4 88 1.1 CALM 0 0 0 0 1009.1 1009.1 1.8
01/08:00am 14.4 14.5 12.8 90 0.9 WSW 4 7 2 4 1009.0 1009.0 1.8
01/07:30am 14.4 15.3 13.0 91 0.8 CALM 0 0 0 0 1009.1 1009.1 1.8
01/07:00am 13.9 14.8 12.8 93 0.6 CALM 0 2 0 1 1009.1 1009.1 1.8
01/06:30am 13.4 14.2 12.5 94 0.5 CALM 0 0 0 0 1009.1 1009.1 1.8
01/06:00am 13.2 13.2 12.4 95 0.4 SSW 4 6 2 3 1009.2 1009.2 1.8
01/05:30am 13.1 12.5 12.3 95 0.4 SSW 7 7 4 4 1009.2 1009.2 1.8
01/05:00am 13.0 12.5 12.2 95 0.4 SW 6 7 3 4 1009.1 1009.1 1.8
01/04:30am 12.9 11.9 12.3 96 0.3 SW 9 9 5 5 1009.0 1009.0 1.8
01/04:00am 12.9 11.5 12.1 95 0.4 SW 11 13 6 7 1009.1 1009.1 1.8
01/03:30am 12.9 11.4 12.0 94 0.5 SW 11 13 6 7 1009.5 1009.5 1.8
01/03:00am 13.0 11.8 11.7 92 0.7 SW 9 13 5 7 1009.6 1009.6 1.8
01/02:30am 13.5 12.1 12.1 91 0.8 WSW 11 15 6 8 1009.7 1009.7 1.8
01/02:00am 13.3 11.3 11.4 88 1.0 WSW 13 15 7 8 1009.9 1009.9 1.8
01/01:30am 13.3 11.0 11.7 90 0.9 SW 15 17 8 9 1010.2 1010.2 1.8
01/01:00am 13.1 11.6 11.8 92 0.7 SW 11 13 6 7 1010.4 1010.4 1.8
01/12:30am 13.1 12.0 11.8 92 0.7 SW 9 13 5 7 1010.7 1010.7 1.8
01/12:00am 13.5 11.3 12.1 91 0.8 WSW 15 17 8 9 1011.2 1011.2 1.4
 
Date/Time
EDT
Temp
°C
App
Temp
°C
Dew
Point
°C
Rel
Hum
%
Delta-T
°C
Wind Press
QNH
hPa
Press
MSL
hPa
Rain since
9am
mm
Dir  Spd
km/h
Gust
km/h
Spd
kts
Gust
kts
30/11:30pm 13.5 11.7 12.1 91 0.8 WSW 13 19 7 10 1011.3 1011.3 1.2
30/11:00pm 13.3 11.5 12.2 93 0.6 SW 13 17 7 9 1011.5 1011.5 1.2
30/10:30pm 13.2 11.4 12.1 93 0.6 SW 13 17 7 9 1011.7 1011.7 1.2
30/10:00pm 13.2 11.5 12.3 94 0.5 WSW 13 19 7 10 1011.7 1011.7 1.2
30/09:30pm 13.2 11.8 12.3 94 0.5 SSW 11 15 6 8 1011.6 1011.6 1.2
30/09:00pm 13.2 11.0 12.1 93 0.6 SW 15 20 8 11 1011.5 1011.5 0.8
30/08:30pm 13.9 11.2 12.8 93 0.6 SSW 19 26 10 14 1011.3 1011.3 0.8
30/08:00pm 14.5 13.6 12.5 88 1.1 S 9 13 5 7 1011.2 1011.2 0.2
30/07:30pm 14.8 14.4 12.3 85 1.4 S 6 9 3 5 1011.0 1011.0 0.2
30/07:00pm 15.1 14.6 11.9 81 1.7 SE 6 9 3 5 1010.8 1010.8 0.2
30/06:30pm 15.6 14.8 11.8 78 2.1 SE 7 11 4 6 1010.6 1010.6 0.2
30/06:00pm 16.0 15.1 11.4 74 2.5 SE 7 13 4 7 1010.4 1010.4 0.2
30/05:30pm 16.1 15.2 11.3 73 2.6 SSE 7 11 4 6 1010.5 1010.5 0.2
30/05:00pm 15.6 14.5 11.8 78 2.1 SE 9 13 5 7 1010.5 1010.5 0.2
30/04:30pm 16.3 15.1 11.7 74 2.5 ESE 9 15 5 8 1010.8 1010.8 0.2
30/04:00pm 17.3 16.2 10.7 65 3.5 S 7 13 4 7 1010.9 1010.9 0.2

Latest Capital City Observations: Canberra | Sydney | Melbourne | Brisbane | Adelaide | Perth | Hobart | Darwin

Other Formats:

Comma delimited format used in spreadsheet applications
http://www.bom.gov.au/fwo/IDT60901/IDT60901.94988.axf

JavaScript Object Notation format (JSON) in row-major order
http://www.bom.gov.au/fwo/IDT60901/IDT60901.94988.json